sensor_id;sensor_type;location;lat;lon;timestamp;temperature;humidity
21787;DHT22;11055;50.870;4.316;2023-03-24T00:01:50;13.00;99.90
21787;DHT22;11055;50.870;4.316;2023-03-24T00:04:15;12.90;99.90
21787;DHT22;11055;50.870;4.316;2023-03-24T00:06:42;12.90;99.90
21787;DHT22;11055;50.870;4.316;2023-03-24T00:09:08;13.00;99.90
21787;DHT22;11055;50.870;4.316;2023-03-24T00:11:34;12.90;99.90
21787;DHT22;11055;50.870;4.316;2023-03-24T00:14:01;12.90;99.90
21787;DHT22;11055;50.870;4.316;2023-03-24T00:16:27;12.80;99.90
21787;DHT22;11055;50.870;4.316;2023-03-24T00:18:54;12.80;99.90
21787;DHT22;11055;50.870;4.316;2023-03-24T00:21:21;12.80;99.90
21787;DHT22;11055;50.870;4.316;2023-03-24T00:23:49;12.80;99.90
21787;DHT22;11055;50.870;4.316;2023-03-24T00:26:15;12.90;99.90
21787;DHT22;11055;50.870;4.316;2023-03-24T00:28:43;12.90;99.90
21787;DHT22;11055;50.870;4.316;2023-03-24T00:31:10;12.90;99.90
21787;DHT22;11055;50.870;4.316;2023-03-24T00:33:36;13.00;99.90
21787;DHT22;11055;50.870;4.316;2023-03-24T00:36:04;13.00;99.90
21787;DHT22;11055;50.870;4.316;2023-03-24T00:38:31;13.00;99.90
21787;DHT22;11055;50.870;4.316;2023-03-24T00:40:59;13.00;99.90
21787;DHT22;11055;50.870;4.316;2023-03-24T00:43:25;13.10;99.90
21787;DHT22;11055;50.870;4.316;2023-03-24T00:45:58;13.00;99.90
21787;DHT22;11055;50.870;4.316;2023-03-24T00:48:27;13.10;99.90
21787;DHT22;11055;50.870;4.316;2023-03-24T00:50:54;13.10;99.90
21787;DHT22;11055;50.870;4.316;2023-03-24T00:53:20;13.10;99.90
21787;DHT22;11055;50.870;4.316;2023-03-24T00:55:54;12.90;99.90
21787;DHT22;11055;50.870;4.316;2023-03-24T00:58:20;13.00;99.90
21787;DHT22;11055;50.870;4.316;2023-03-24T01:00:48;13.10;99.90
21787;DHT22;11055;50.870;4.316;2023-03-24T01:03:15;13.20;99.90
21787;DHT22;11055;50.870;4.316;2023-03-24T01:05:42;13.20;99.90
21787;DHT22;11055;50.870;4.316;2023-03-24T01:08:15;13.10;99.90
21787;DHT22;11055;50.870;4.316;2023-03-24T01:10:45;13.20;99.90
21787;DHT22;11055;50.870;4.316;2023-03-24T01:13:23;13.20;99.90
21787;DHT22;11055;50.870;4.316;2023-03-24T01:15:50;13.20;99.90
21787;DHT22;11055;50.870;4.316;2023-03-24T01:18:16;13.20;99.90
21787;DHT22;11055;50.870;4.316;2023-03-24T01:20:44;13.20;99.90
21787;DHT22;11055;50.870;4.316;2023-03-24T01:23:12;13.30;99.90
21787;DHT22;11055;50.870;4.316;2023-03-24T01:25:39;13.30;99.90
21787;DHT22;11055;50.870;4.316;2023-03-24T01:28:07;13.30;99.90
21787;DHT22;11055;50.870;4.316;2023-03-24T01:30:33;13.30;99.90
21787;DHT22;11055;50.870;4.316;2023-03-24T01:32:58;13.30;99.90
21787;DHT22;11055;50.870;4.316;2023-03-24T01:35:25;13.30;99.90
21787;DHT22;11055;50.870;4.316;2023-03-24T01:37:51;13.30;99.90
21787;DHT22;11055;50.870;4.316;2023-03-24T01:40:23;13.30;99.90
21787;DHT22;11055;50.870;4.316;2023-03-24T01:42:50;13.40;99.90
21787;DHT22;11055;50.870;4.316;2023-03-24T01:48:17;13.50;99.90
21787;DHT22;11055;50.870;4.316;2023-03-24T01:51:04;13.50;99.90
21787;DHT22;11055;50.870;4.316;2023-03-24T01:53:31;13.40;99.90
21787;DHT22;11055;50.870;4.316;2023-03-24T01:55:59;13.40;99.90
21787;DHT22;11055;50.870;4.316;2023-03-24T01:58:27;13.30;99.90
21787;DHT22;11055;50.870;4.316;2023-03-24T02:00:54;13.30;99.90
21787;DHT22;11055;50.870;4.316;2023-03-24T02:03:22;13.20;99.90
21787;DHT22;11055;50.870;4.316;2023-03-24T02:05:50;13.10;99.90
21787;DHT22;11055;50.870;4.316;2023-03-24T02:10:45;13.10;99.90
21787;DHT22;11055;50.870;4.316;2023-03-24T02:13:11;13.10;99.90
21787;DHT22;11055;50.870;4.316;2023-03-24T02:22:00;12.40;99.90
21787;DHT22;11055;50.870;4.316;2023-03-24T02:38:49;11.80;99.90
21787;DHT22;11055;50.870;4.316;2023-03-24T02:47:17;11.60;99.90
21787;DHT22;11055;50.870;4.316;2023-03-24T02:49:59;11.60;99.90
21787;DHT22;11055;50.870;4.316;2023-03-24T02:52:51;11.60;99.90
21787;DHT22;11055;50.870;4.316;2023-03-24T02:58:12;11.60;99.90
21787;DHT22;11055;50.870;4.316;2023-03-24T03:00:53;11.40;99.90
21787;DHT22;11055;50.870;4.316;2023-03-24T03:03:35;11.40;99.90
21787;DHT22;11055;50.870;4.316;2023-03-24T03:06:08;11.40;99.90
21787;DHT22;11055;50.870;4.316;2023-03-24T03:08:38;11.30;99.90
21787;DHT22;11055;50.870;4.316;2023-03-24T03:11:07;11.30;99.90
21787;DHT22;11055;50.870;4.316;2023-03-24T03:13:42;11.30;99.90
21787;DHT22;11055;50.870;4.316;2023-03-24T03:16:33;11.20;99.90
21787;DHT22;11055;50.870;4.316;2023-03-24T03:19:07;11.20;99.90
21787;DHT22;11055;50.870;4.316;2023-03-24T03:21:40;11.10;99.90
21787;DHT22;11055;50.870;4.316;2023-03-24T03:24:17;11.10;99.90
21787;DHT22;11055;50.870;4.316;2023-03-24T03:26:54;11.10;99.90
21787;DHT22;11055;50.870;4.316;2023-03-24T03:29:25;11.10;99.90
21787;DHT22;11055;50.870;4.316;2023-03-24T03:32:00;11.10;99.90
21787;DHT22;11055;50.870;4.316;2023-03-24T03:40:19;11.10;99.90
21787;DHT22;11055;50.870;4.316;2023-03-24T03:42:47;11.10;99.90
21787;DHT22;11055;50.870;4.316;2023-03-24T03:45:13;11.10;99.90
21787;DHT22;11055;50.870;4.316;2023-03-24T03:47:39;11.10;99.90
21787;DHT22;11055;50.870;4.316;2023-03-24T03:50:06;11.00;99.90
21787;DHT22;11055;50.870;4.316;2023-03-24T03:52:34;11.10;99.90
21787;DHT22;11055;50.870;4.316;2023-03-24T03:55:02;11.10;99.90
21787;DHT22;11055;50.870;4.316;2023-03-24T03:57:28;11.10;99.90
21787;DHT22;11055;50.870;4.316;2023-03-24T03:59:54;11.10;99.90
21787;DHT22;11055;50.870;4.316;2023-03-24T04:18:32;11.10;99.90
21787;DHT22;11055;50.870;4.316;2023-03-24T04:23:41;11.00;99.90
21787;DHT22;11055;50.870;4.316;2023-03-24T04:26:24;11.10;99.90
21787;DHT22;11055;50.870;4.316;2023-03-24T04:31:34;11.10;99.90
21787;DHT22;11055;50.870;4.316;2023-03-24T04:36:52;11.00;99.90
21787;DHT22;11055;50.870;4.316;2023-03-24T04:39:23;11.00;99.90
21787;DHT22;11055;50.870;4.316;2023-03-24T04:41:50;10.90;99.90
21787;DHT22;11055;50.870;4.316;2023-03-24T04:44:17;10.90;99.90
21787;DHT22;11055;50.870;4.316;2023-03-24T04:46:50;10.90;99.90
21787;DHT22;11055;50.870;4.316;2023-03-24T04:49:16;10.90;99.90
21787;DHT22;11055;50.870;4.316;2023-03-24T04:51:44;10.90;99.90
21787;DHT22;11055;50.870;4.316;2023-03-24T04:54:10;10.90;99.90
21787;DHT22;11055;50.870;4.316;2023-03-24T04:56:45;10.90;99.90
21787;DHT22;11055;50.870;4.316;2023-03-24T04:59:13;10.90;99.90
21787;DHT22;11055;50.870;4.316;2023-03-24T05:01:40;10.90;99.90
21787;DHT22;11055;50.870;4.316;2023-03-24T05:04:06;10.80;99.90
21787;DHT22;11055;50.870;4.316;2023-03-24T05:06:33;10.80;99.90
21787;DHT22;11055;50.870;4.316;2023-03-24T05:08:58;10.70;99.90
21787;DHT22;11055;50.870;4.316;2023-03-24T05:11:25;10.70;99.90
21787;DHT22;11055;50.870;4.316;2023-03-24T05:13:52;10.60;99.90
21787;DHT22;11055;50.870;4.316;2023-03-24T05:16:18;10.70;99.90
21787;DHT22;11055;50.870;4.316;2023-03-24T05:18:44;10.60;99.90
21787;DHT22;11055;50.870;4.316;2023-03-24T05:21:09;10.60;99.90
21787;DHT22;11055;50.870;4.316;2023-03-24T05:23:35;10.60;99.90
21787;DHT22;11055;50.870;4.316;2023-03-24T05:26:01;10.70;99.90
21787;DHT22;11055;50.870;4.316;2023-03-24T05:28:27;10.70;99.90
21787;DHT22;11055;50.870;4.316;2023-03-24T05:30:52;10.70;99.90
21787;DHT22;11055;50.870;4.316;2023-03-24T05:33:18;10.70;99.90
21787;DHT22;11055;50.870;4.316;2023-03-24T05:35:44;10.60;99.90
21787;DHT22;11055;50.870;4.316;2023-03-24T05:38:10;10.70;99.90
21787;DHT22;11055;50.870;4.316;2023-03-24T05:40:36;10.70;99.90
21787;DHT22;11055;50.870;4.316;2023-03-24T05:43:01;10.70;99.90
21787;DHT22;11055;50.870;4.316;2023-03-24T05:45:27;10.70;99.90
21787;DHT22;11055;50.870;4.316;2023-03-24T05:47:54;10.70;99.90
21787;DHT22;11055;50.870;4.316;2023-03-24T05:50:20;10.80;99.90
21787;DHT22;11055;50.870;4.316;2023-03-24T05:52:46;10.90;99.90
21787;DHT22;11055;50.870;4.316;2023-03-24T05:55:12;10.80;99.90
21787;DHT22;11055;50.870;4.316;2023-03-24T05:57:40;10.70;99.90
21787;DHT22;11055;50.870;4.316;2023-03-24T06:00:06;10.60;99.90
21787;DHT22;11055;50.870;4.316;2023-03-24T06:02:40;10.60;99.90
21787;DHT22;11055;50.870;4.316;2023-03-24T06:05:06;10.60;99.90
21787;DHT22;11055;50.870;4.316;2023-03-24T06:07:32;10.50;99.90
21787;DHT22;11055;50.870;4.316;2023-03-24T06:09:58;10.50;99.90
21787;DHT22;11055;50.870;4.316;2023-03-24T06:12:28;10.60;99.90
21787;DHT22;11055;50.870;4.316;2023-03-24T06:14:56;10.50;99.90
21787;DHT22;11055;50.870;4.316;2023-03-24T06:17:22;10.40;99.90
21787;DHT22;11055;50.870;4.316;2023-03-24T06:19:52;10.40;99.90
21787;DHT22;11055;50.870;4.316;2023-03-24T06:22:18;10.40;99.90
21787;DHT22;11055;50.870;4.316;2023-03-24T06:24:45;10.40;99.90
21787;DHT22;11055;50.870;4.316;2023-03-24T06:27:11;10.50;99.90
21787;DHT22;11055;50.870;4.316;2023-03-24T06:29:39;10.50;99.90
21787;DHT22;11055;50.870;4.316;2023-03-24T06:32:07;10.50;99.90
21787;DHT22;11055;50.870;4.316;2023-03-24T06:34:33;10.60;99.90
21787;DHT22;11055;50.870;4.316;2023-03-24T06:36:59;10.70;99.90
21787;DHT22;11055;50.870;4.316;2023-03-24T06:39:25;10.60;99.90
21787;DHT22;11055;50.870;4.316;2023-03-24T06:41:51;10.70;99.90
21787;DHT22;11055;50.870;4.316;2023-03-24T06:44:17;10.70;99.90
21787;DHT22;11055;50.870;4.316;2023-03-24T06:46:42;10.70;99.90
21787;DHT22;11055;50.870;4.316;2023-03-24T06:49:10;10.70;99.90
21787;DHT22;11055;50.870;4.316;2023-03-24T06:51:36;10.90;99.90
21787;DHT22;11055;50.870;4.316;2023-03-24T06:54:02;11.00;99.90
21787;DHT22;11055;50.870;4.316;2023-03-24T06:56:28;11.20;99.90
21787;DHT22;11055;50.870;4.316;2023-03-24T06:58:54;11.20;99.90
21787;DHT22;11055;50.870;4.316;2023-03-24T07:01:21;11.10;99.90
21787;DHT22;11055;50.870;4.316;2023-03-24T07:03:47;11.20;99.90
21787;DHT22;11055;50.870;4.316;2023-03-24T07:06:13;11.30;99.90
21787;DHT22;11055;50.870;4.316;2023-03-24T07:08:38;11.40;99.90
21787;DHT22;11055;50.870;4.316;2023-03-24T07:11:05;11.50;99.90
21787;DHT22;11055;50.870;4.316;2023-03-24T07:13:33;11.40;99.90
21787;DHT22;11055;50.870;4.316;2023-03-24T07:15:58;11.40;99.90
21787;DHT22;11055;50.870;4.316;2023-03-24T07:18:24;11.40;99.90
21787;DHT22;11055;50.870;4.316;2023-03-24T07:20:50;11.60;99.90
21787;DHT22;11055;50.870;4.316;2023-03-24T07:23:16;11.80;99.90
21787;DHT22;11055;50.870;4.316;2023-03-24T07:25:42;11.90;99.90
21787;DHT22;11055;50.870;4.316;2023-03-24T07:28:09;11.90;99.90
21787;DHT22;11055;50.870;4.316;2023-03-24T07:30:35;11.80;99.90
21787;DHT22;11055;50.870;4.316;2023-03-24T07:33:04;11.80;99.90
21787;DHT22;11055;50.870;4.316;2023-03-24T07:35:30;11.90;99.90
21787;DHT22;11055;50.870;4.316;2023-03-24T07:37:57;11.90;99.90
21787;DHT22;11055;50.870;4.316;2023-03-24T07:40:23;12.00;99.90
21787;DHT22;11055;50.870;4.316;2023-03-24T07:42:49;12.20;99.90
21787;DHT22;11055;50.870;4.316;2023-03-24T07:45:14;12.00;99.90
21787;DHT22;11055;50.870;4.316;2023-03-24T07:47:43;12.00;99.90
21787;DHT22;11055;50.870;4.316;2023-03-24T07:50:09;11.80;99.90
21787;DHT22;11055;50.870;4.316;2023-03-24T07:52:40;11.90;99.90
21787;DHT22;11055;50.870;4.316;2023-03-24T07:55:08;12.00;99.90
21787;DHT22;11055;50.870;4.316;2023-03-24T07:57:41;12.00;99.90
21787;DHT22;11055;50.870;4.316;2023-03-24T08:00:09;11.90;99.90
21787;DHT22;11055;50.870;4.316;2023-03-24T08:02:43;12.00;99.90
21787;DHT22;11055;50.870;4.316;2023-03-24T08:05:09;12.10;99.90
21787;DHT22;11055;50.870;4.316;2023-03-24T08:07:39;12.00;99.90
21787;DHT22;11055;50.870;4.316;2023-03-24T08:10:11;11.90;99.90
21787;DHT22;11055;50.870;4.316;2023-03-24T08:12:37;11.80;99.90
21787;DHT22;11055;50.870;4.316;2023-03-24T08:15:04;11.80;99.90
21787;DHT22;11055;50.870;4.316;2023-03-24T08:17:29;11.60;99.90
21787;DHT22;11055;50.870;4.316;2023-03-24T08:19:55;11.50;99.90
21787;DHT22;11055;50.870;4.316;2023-03-24T08:22:21;11.40;99.90
21787;DHT22;11055;50.870;4.316;2023-03-24T08:24:46;11.50;99.90
21787;DHT22;11055;50.870;4.316;2023-03-24T08:27:12;11.60;99.90
21787;DHT22;11055;50.870;4.316;2023-03-24T08:29:38;11.80;99.90
21787;DHT22;11055;50.870;4.316;2023-03-24T08:32:04;11.80;99.90
21787;DHT22;11055;50.870;4.316;2023-03-24T08:34:29;11.90;99.90
21787;DHT22;11055;50.870;4.316;2023-03-24T08:36:55;11.90;99.90
21787;DHT22;11055;50.870;4.316;2023-03-24T08:39:21;11.80;99.90
21787;DHT22;11055;50.870;4.316;2023-03-24T08:41:48;11.90;99.90
21787;DHT22;11055;50.870;4.316;2023-03-24T08:44:15;12.00;99.90
21787;DHT22;11055;50.870;4.316;2023-03-24T08:46:41;12.10;99.90
21787;DHT22;11055;50.870;4.316;2023-03-24T08:49:07;12.20;99.90
21787;DHT22;11055;50.870;4.316;2023-03-24T08:51:33;12.00;99.90
21787;DHT22;11055;50.870;4.316;2023-03-24T08:53:59;12.10;99.90
21787;DHT22;11055;50.870;4.316;2023-03-24T08:56:26;12.20;99.90
21787;DHT22;11055;50.870;4.316;2023-03-24T08:58:52;12.20;99.90
21787;DHT22;11055;50.870;4.316;2023-03-24T09:01:19;12.30;99.90
21787;DHT22;11055;50.870;4.316;2023-03-24T09:03:45;12.40;99.90
21787;DHT22;11055;50.870;4.316;2023-03-24T09:06:12;12.50;99.90
21787;DHT22;11055;50.870;4.316;2023-03-24T09:08:38;12.70;99.90
21787;DHT22;11055;50.870;4.316;2023-03-24T09:11:04;12.90;99.90
21787;DHT22;11055;50.870;4.316;2023-03-24T09:13:30;13.10;99.90
21787;DHT22;11055;50.870;4.316;2023-03-24T09:16:02;13.10;99.90
21787;DHT22;11055;50.870;4.316;2023-03-24T09:18:28;13.20;99.90
21787;DHT22;11055;50.870;4.316;2023-03-24T09:20:54;13.20;99.90
21787;DHT22;11055;50.870;4.316;2023-03-24T09:23:20;13.10;99.90
21787;DHT22;11055;50.870;4.316;2023-03-24T09:25:51;13.30;99.90
21787;DHT22;11055;50.870;4.316;2023-03-24T09:28:18;13.50;99.90
21787;DHT22;11055;50.870;4.316;2023-03-24T09:30:44;13.50;99.90
21787;DHT22;11055;50.870;4.316;2023-03-24T09:33:10;13.70;99.90
21787;DHT22;11055;50.870;4.316;2023-03-24T09:35:35;13.60;99.90
21787;DHT22;11055;50.870;4.316;2023-03-24T09:38:01;13.70;99.90
21787;DHT22;11055;50.870;4.316;2023-03-24T09:40:28;13.70;99.90
21787;DHT22;11055;50.870;4.316;2023-03-24T09:43:05;13.50;99.90
21787;DHT22;11055;50.870;4.316;2023-03-24T09:45:35;13.30;99.90
21787;DHT22;11055;50.870;4.316;2023-03-24T09:48:06;13.30;99.90
21787;DHT22;11055;50.870;4.316;2023-03-24T09:53:13;13.00;99.90
21787;DHT22;11055;50.870;4.316;2023-03-24T09:55:46;13.00;99.90
21787;DHT22;11055;50.870;4.316;2023-03-24T09:58:13;13.00;99.90
21787;DHT22;11055;50.870;4.316;2023-03-24T10:00:39;13.20;99.90
21787;DHT22;11055;50.870;4.316;2023-03-24T10:03:21;13.50;99.90
21787;DHT22;11055;50.870;4.316;2023-03-24T10:21:20;13.70;99.90
21787;DHT22;11055;50.870;4.316;2023-03-24T10:24:14;13.70;99.90
21787;DHT22;11055;50.870;4.316;2023-03-24T10:29:54;13.60;99.90
21787;DHT22;11055;50.870;4.316;2023-03-24T10:32:25;13.70;99.90
21787;DHT22;11055;50.870;4.316;2023-03-24T10:34:57;13.80;99.90
21787;DHT22;11055;50.870;4.316;2023-03-24T10:37:26;13.90;99.90
21787;DHT22;11055;50.870;4.316;2023-03-24T10:39:53;14.20;99.90
21787;DHT22;11055;50.870;4.316;2023-03-24T10:42:24;14.30;99.90
21787;DHT22;11055;50.870;4.316;2023-03-24T10:44:51;14.10;99.90
21787;DHT22;11055;50.870;4.316;2023-03-24T10:47:35;13.90;99.90
21787;DHT22;11055;50.870;4.316;2023-03-24T10:50:07;13.80;99.90
21787;DHT22;11055;50.870;4.316;2023-03-24T10:52:41;13.80;99.90
21787;DHT22;11055;50.870;4.316;2023-03-24T10:55:14;13.70;99.90
21787;DHT22;11055;50.870;4.316;2023-03-24T10:57:46;14.10;99.90
21787;DHT22;11055;50.870;4.316;2023-03-24T11:00:20;14.40;99.90
21787;DHT22;11055;50.870;4.316;2023-03-24T11:03:00;14.80;99.90
21787;DHT22;11055;50.870;4.316;2023-03-24T11:05:31;15.00;99.90
21787;DHT22;11055;50.870;4.316;2023-03-24T11:10:43;14.40;99.90
21787;DHT22;11055;50.870;4.316;2023-03-24T11:16:09;14.00;99.90
21787;DHT22;11055;50.870;4.316;2023-03-24T11:18:35;14.30;99.90
21787;DHT22;11055;50.870;4.316;2023-03-24T11:21:02;14.50;99.90
21787;DHT22;11055;50.870;4.316;2023-03-24T11:23:36;15.00;99.90
21787;DHT22;11055;50.870;4.316;2023-03-24T11:26:07;15.20;99.90
21787;DHT22;11055;50.870;4.316;2023-03-24T11:28:40;15.20;99.90
21787;DHT22;11055;50.870;4.316;2023-03-24T11:31:11;15.30;99.90
21787;DHT22;11055;50.870;4.316;2023-03-24T11:34:16;15.90;99.90
21787;DHT22;11055;50.870;4.316;2023-03-24T11:36:56;19.10;99.90
21787;DHT22;11055;50.870;4.316;2023-03-24T11:39:32;21.80;99.90
21787;DHT22;11055;50.870;4.316;2023-03-24T11:44:30;19.30;99.90
21787;DHT22;11055;50.870;4.316;2023-03-24T11:47:12;20.40;99.90
21787;DHT22;11055;50.870;4.316;2023-03-24T11:50:32;20.20;99.90
21787;DHT22;11055;50.870;4.316;2023-03-24T11:55:41;18.30;99.90
21787;DHT22;11055;50.870;4.316;2023-03-24T12:01:07;17.20;99.90
21787;DHT22;11055;50.870;4.316;2023-03-24T12:12:29;22.70;93.70
21787;DHT22;11055;50.870;4.316;2023-03-24T12:17:42;17.10;99.90
21787;DHT22;11055;50.870;4.316;2023-03-24T12:22:58;16.40;99.90
21787;DHT22;11055;50.870;4.316;2023-03-24T12:36:11;17.60;99.90
21787;DHT22;11055;50.870;4.316;2023-03-24T12:42:10;18.30;99.90
21787;DHT22;11055;50.870;4.316;2023-03-24T12:50:29;16.10;99.90
21787;DHT22;11055;50.870;4.316;2023-03-24T12:53:25;15.40;99.90
21787;DHT22;11055;50.870;4.316;2023-03-24T12:58:48;15.70;99.90
21787;DHT22;11055;50.870;4.316;2023-03-24T13:03:49;14.30;99.90
21787;DHT22;11055;50.870;4.316;2023-03-24T13:06:23;13.90;99.90
21787;DHT22;11055;50.870;4.316;2023-03-24T13:14:22;13.00;99.90
21787;DHT22;11055;50.870;4.316;2023-03-24T13:16:58;16.90;99.90
21787;DHT22;11055;50.870;4.316;2023-03-24T13:19:26;21.60;99.90
21787;DHT22;11055;50.870;4.316;2023-03-24T13:21:53;25.70;97.60
21787;DHT22;11055;50.870;4.316;2023-03-24T13:24:21;31.10;81.00
21787;DHT22;11055;50.870;4.316;2023-03-24T13:34:54;28.30;69.10
21787;DHT22;11055;50.870;4.316;2023-03-24T13:37:39;32.00;58.70
21787;DHT22;11055;50.870;4.316;2023-03-24T13:40:21;33.00;54.00
21787;DHT22;11055;50.870;4.316;2023-03-24T13:42:55;32.10;53.70
21787;DHT22;11055;50.870;4.316;2023-03-24T13:50:37;21.50;81.50
21787;DHT22;11055;50.870;4.316;2023-03-24T13:53:13;19.30;96.80
21787;DHT22;11055;50.870;4.316;2023-03-24T13:55:47;18.10;99.90
21787;DHT22;11055;50.870;4.316;2023-03-24T13:58:20;17.10;99.90
21787;DHT22;11055;50.870;4.316;2023-03-24T14:01:16;16.60;99.90
21787;DHT22;11055;50.870;4.316;2023-03-24T14:03:44;15.90;99.90
21787;DHT22;11055;50.870;4.316;2023-03-24T14:06:22;16.00;99.90
21787;DHT22;11055;50.870;4.316;2023-03-24T14:09:04;16.40;99.90
21787;DHT22;11055;50.870;4.316;2023-03-24T14:14:22;16.10;99.90
21787;DHT22;11055;50.870;4.316;2023-03-24T14:17:11;15.70;99.90
21787;DHT22;11055;50.870;4.316;2023-03-24T14:22:32;15.00;99.90
21787;DHT22;11055;50.870;4.316;2023-03-24T14:25:46;15.00;99.90
21787;DHT22;11055;50.870;4.316;2023-03-24T14:34:15;14.60;99.90
21787;DHT22;11055;50.870;4.316;2023-03-24T14:36:44;15.00;99.90
21787;DHT22;11055;50.870;4.316;2023-03-24T14:41:47;15.20;99.90
21787;DHT22;11055;50.870;4.316;2023-03-24T14:47:16;15.20;99.90
21787;DHT22;11055;50.870;4.316;2023-03-24T14:49:45;15.30;99.90
21787;DHT22;11055;50.870;4.316;2023-03-24T14:52:20;15.40;99.90
21787;DHT22;11055;50.870;4.316;2023-03-24T14:55:01;15.40;99.90
21787;DHT22;11055;50.870;4.316;2023-03-24T14:57:30;15.50;99.90
21787;DHT22;11055;50.870;4.316;2023-03-24T15:02:31;15.80;99.90
21787;DHT22;11055;50.870;4.316;2023-03-24T15:05:19;15.70;99.90
21787;DHT22;11055;50.870;4.316;2023-03-24T15:07:59;15.40;99.90
21787;DHT22;11055;50.870;4.316;2023-03-24T15:10:26;15.20;99.90
21787;DHT22;11055;50.870;4.316;2023-03-24T15:12:56;15.10;99.90
21787;DHT22;11055;50.870;4.316;2023-03-24T15:15:23;15.00;99.90
21787;DHT22;11055;50.870;4.316;2023-03-24T15:17:50;15.00;99.90
21787;DHT22;11055;50.870;4.316;2023-03-24T15:22:45;15.20;99.90
21787;DHT22;11055;50.870;4.316;2023-03-24T15:25:12;15.00;99.90
21787;DHT22;11055;50.870;4.316;2023-03-24T15:27:58;15.00;99.90
21787;DHT22;11055;50.870;4.316;2023-03-24T15:30:24;14.90;99.90
21787;DHT22;11055;50.870;4.316;2023-03-24T15:32:50;14.90;99.90
21787;DHT22;11055;50.870;4.316;2023-03-24T15:35:23;15.00;99.90
21787;DHT22;11055;50.870;4.316;2023-03-24T15:37:54;15.00;99.90
21787;DHT22;11055;50.870;4.316;2023-03-24T15:42:56;14.90;99.90
21787;DHT22;11055;50.870;4.316;2023-03-24T15:47:54;15.00;99.90
21787;DHT22;11055;50.870;4.316;2023-03-24T15:50:39;15.30;99.90
21787;DHT22;11055;50.870;4.316;2023-03-24T15:55:43;15.00;99.90
21787;DHT22;11055;50.870;4.316;2023-03-24T15:58:28;15.00;99.90
21787;DHT22;11055;50.870;4.316;2023-03-24T16:00:58;15.20;99.90
21787;DHT22;11055;50.870;4.316;2023-03-24T16:03:25;15.10;99.90
21787;DHT22;11055;50.870;4.316;2023-03-24T16:05:53;14.90;99.90
21787;DHT22;11055;50.870;4.316;2023-03-24T16:11:01;14.80;99.90
21787;DHT22;11055;50.870;4.316;2023-03-24T16:13:29;14.90;99.90
21787;DHT22;11055;50.870;4.316;2023-03-24T16:16:06;14.60;99.90
21787;DHT22;11055;50.870;4.316;2023-03-24T16:18:35;14.60;99.90
21787;DHT22;11055;50.870;4.316;2023-03-24T16:21:10;14.70;99.90
21787;DHT22;11055;50.870;4.316;2023-03-24T16:23:37;14.60;99.90
21787;DHT22;11055;50.870;4.316;2023-03-24T16:26:04;14.50;99.90
21787;DHT22;11055;50.870;4.316;2023-03-24T16:28:30;14.50;99.90
21787;DHT22;11055;50.870;4.316;2023-03-24T16:31:01;14.60;99.90
21787;DHT22;11055;50.870;4.316;2023-03-24T16:33:28;14.70;99.90
21787;DHT22;11055;50.870;4.316;2023-03-24T16:35:55;15.00;99.90
21787;DHT22;11055;50.870;4.316;2023-03-24T16:38:20;15.00;99.90
21787;DHT22;11055;50.870;4.316;2023-03-24T16:40:51;15.00;99.90
21787;DHT22;11055;50.870;4.316;2023-03-24T16:43:17;15.00;99.90
21787;DHT22;11055;50.870;4.316;2023-03-24T16:45:48;14.80;99.90
21787;DHT22;11055;50.870;4.316;2023-03-24T16:48:15;14.70;99.90
21787;DHT22;11055;50.870;4.316;2023-03-24T16:50:44;14.50;99.90
21787;DHT22;11055;50.870;4.316;2023-03-24T16:53:10;14.30;99.90
21787;DHT22;11055;50.870;4.316;2023-03-24T16:55:37;14.20;99.90
21787;DHT22;11055;50.870;4.316;2023-03-24T16:58:04;14.10;99.90
21787;DHT22;11055;50.870;4.316;2023-03-24T17:00:30;14.00;99.90
21787;DHT22;11055;50.870;4.316;2023-03-24T17:02:56;13.80;99.90
21787;DHT22;11055;50.870;4.316;2023-03-24T17:05:36;13.60;99.90
21787;DHT22;11055;50.870;4.316;2023-03-24T17:08:03;13.40;99.90
21787;DHT22;11055;50.870;4.316;2023-03-24T17:10:29;13.10;99.90
21787;DHT22;11055;50.870;4.316;2023-03-24T17:12:55;13.00;99.90
21787;DHT22;11055;50.870;4.316;2023-03-24T17:15:23;12.80;99.90
21787;DHT22;11055;50.870;4.316;2023-03-24T17:17:49;12.80;99.90
21787;DHT22;11055;50.870;4.316;2023-03-24T17:20:15;12.70;99.90
21787;DHT22;11055;50.870;4.316;2023-03-24T17:22:42;12.70;99.90
21787;DHT22;11055;50.870;4.316;2023-03-24T17:25:10;12.70;99.90
21787;DHT22;11055;50.870;4.316;2023-03-24T17:27:37;12.70;99.90
21787;DHT22;11055;50.870;4.316;2023-03-24T17:30:03;12.60;99.90
21787;DHT22;11055;50.870;4.316;2023-03-24T17:32:30;12.40;99.90
21787;DHT22;11055;50.870;4.316;2023-03-24T17:35:01;12.40;99.90
21787;DHT22;11055;50.870;4.316;2023-03-24T17:37:29;12.40;99.90
21787;DHT22;11055;50.870;4.316;2023-03-24T17:39:55;12.20;99.90
21787;DHT22;11055;50.870;4.316;2023-03-24T17:42:23;12.20;99.90
21787;DHT22;11055;50.870;4.316;2023-03-24T17:44:50;12.30;99.90
21787;DHT22;11055;50.870;4.316;2023-03-24T17:47:16;12.30;99.90
21787;DHT22;11055;50.870;4.316;2023-03-24T17:49:42;12.30;99.90
21787;DHT22;11055;50.870;4.316;2023-03-24T17:52:07;12.20;99.90
21787;DHT22;11055;50.870;4.316;2023-03-24T17:54:33;12.10;99.90
21787;DHT22;11055;50.870;4.316;2023-03-24T17:56:59;12.10;99.90
21787;DHT22;11055;50.870;4.316;2023-03-24T17:59:25;12.10;99.90
21787;DHT22;11055;50.870;4.316;2023-03-24T18:01:50;12.20;99.90
21787;DHT22;11055;50.870;4.316;2023-03-24T18:04:16;12.30;99.90
21787;DHT22;11055;50.870;4.316;2023-03-24T18:06:42;12.20;99.90
21787;DHT22;11055;50.870;4.316;2023-03-24T18:09:08;12.20;99.90
21787;DHT22;11055;50.870;4.316;2023-03-24T18:11:35;12.10;99.90
21787;DHT22;11055;50.870;4.316;2023-03-24T18:14:01;12.00;99.90
21787;DHT22;11055;50.870;4.316;2023-03-24T18:16:27;12.00;99.90
21787;DHT22;11055;50.870;4.316;2023-03-24T18:18:55;11.80;99.90
21787;DHT22;11055;50.870;4.316;2023-03-24T18:21:21;11.80;99.90
21787;DHT22;11055;50.870;4.316;2023-03-24T18:23:48;11.70;99.90
21787;DHT22;11055;50.870;4.316;2023-03-24T18:26:15;11.70;99.90
21787;DHT22;11055;50.870;4.316;2023-03-24T18:28:42;11.70;99.90
21787;DHT22;11055;50.870;4.316;2023-03-24T18:31:11;11.60;99.90
21787;DHT22;11055;50.870;4.316;2023-03-24T18:33:39;11.60;99.90
21787;DHT22;11055;50.870;4.316;2023-03-24T18:36:07;11.70;99.90
21787;DHT22;11055;50.870;4.316;2023-03-24T18:38:35;11.60;99.90
21787;DHT22;11055;50.870;4.316;2023-03-24T18:41:06;11.60;99.90
21787;DHT22;11055;50.870;4.316;2023-03-24T18:43:32;11.60;99.90
21787;DHT22;11055;50.870;4.316;2023-03-24T18:46:06;11.40;99.90
21787;DHT22;11055;50.870;4.316;2023-03-24T18:48:39;11.30;99.90
21787;DHT22;11055;50.870;4.316;2023-03-24T18:51:09;11.40;99.90
21787;DHT22;11055;50.870;4.316;2023-03-24T18:53:35;11.40;99.90
21787;DHT22;11055;50.870;4.316;2023-03-24T18:56:02;11.40;99.90